Latest Weather Observations for Tennant Creek

IDD60801

Issued at 9:51 pm CST Tuesday 24 May 2022 (issued every 10 minutes, with the page automatically refreshed every 10 minutes)

About weather observations | Map of weather stations | Latest weather observations for NT | Other Formats
Station Details ID: 015135 Name: TENNANT CREEK AIRPORT Lat: -19.64 Lon: 134.18 Height: 375.7 m
Data from the previous 72 hours. | See also: Recent months at Tennant Creek
Date/Time
CST
Temp
°C
App
Temp
°C
Dew
Point
°C
Rel
Hum
%
Delta-T
°C
Wind Press
QNH
hPa
Press
MSL
hPa
Rain since
9am
mm
Dir  Spd
km/h
Gust
km/h
Spd
kts
Gust
kts
24/09:30pm 22.1 21.4 7.1 38 7.9 CALM 0 0 0 0 1018.3 1016.7 0.0
24/09:00pm 22.1 21.4 7.1 38 7.9 CALM 0 0 0 0 1018.3 1016.7 0.0
24/08:30pm 22.1 21.3 6.7 37 8.0 CALM 0 0 0 0 1017.8 1016.1 0.0
24/08:00pm 22.6 21.9 6.8 36 8.3 CALM 0 0 0 0 1017.4 1015.8 0.0
24/07:30pm 23.3 22.6 7.0 35 8.6 CALM 0 0 0 0 1017.0 1015.4 0.0
24/07:00pm 24.4 23.7 7.1 33 9.2 CALM 0 0 0 0 1016.6 1015.0 0.0
24/06:30pm 25.6 25.0 7.2 31 9.9 CALM 0 0 0 0 1016.5 1014.9 0.0
24/06:00pm 26.6 25.9 7.1 29 10.5 CALM 0 0 0 0 1016.1 1014.5 0.0
24/05:30pm 27.4 26.8 7.3 28 10.9 CALM 0 0 0 0 1015.7 1014.0 0.0
24/05:00pm 28.0 27.2 6.7 26 11.5 CALM 0 0 0 0 1015.5 1013.8 0.0
24/04:30pm 28.3 27.7 7.5 27 11.4 CALM 0 0 0 0 1015.4 1013.7 0.0
24/04:00pm 28.5 28.0 7.7 27 11.4 CALM 0 2 0 1 1015.4 1013.7 0.0
24/03:30pm 28.3 27.7 7.5 27 11.4 CALM 0 0 0 0 1015.5 1013.8 0.0
24/03:00pm 28.5 28.0 7.7 27 11.4 CALM 0 0 0 0 1015.4 1013.7 0.0
24/02:30pm 28.2 27.7 8.0 28 11.1 CALM 0 0 0 0 1015.5 1013.8 0.0
24/02:00pm 28.0 26.3 8.3 29 10.9 E 7 24 4 13 1015.7 1014.0 0.0
24/01:30pm 27.6 24.8 8.5 30 10.6 E 13 24 7 13 1016.4 1014.8 0.0
24/01:00pm 27.3 24.2 8.7 31 10.3 ESE 15 24 8 13 1016.9 1015.3 0.0
24/12:30pm 27.0 23.9 8.9 32 10.1 E 15 26 8 14 1017.4 1015.8 0.0
24/12:00pm 26.3 22.2 8.8 33 9.7 E 20 30 11 16 1018.1 1016.4 0.0
24/11:30am 26.3 22.4 8.8 33 9.7 E 19 30 10 16 1018.6 1017.0 0.0
24/11:00am 25.8 21.5 9.2 35 9.2 ENE 22 30 12 16 1018.7 1017.1 0.0
24/10:30am 24.7 19.8 8.6 36 8.8 E 24 33 13 18 1018.9 1017.3 0.0
24/10:00am 24.6 19.1 9.0 37 8.6 E 28 35 15 19 1019.0 1017.4 0.0
24/09:30am 23.4 18.6 9.0 40 7.9 E 24 32 13 17 1018.8 1017.2 0.0
24/09:00am 21.7 21.6 9.3 45 6.7 CALM 0 32 0 17 1018.4 1016.8 0.0
24/08:30am 19.7 19.5 9.0 50 5.7 CALM 0 0 0 0 1018.3 1016.7 0.0
24/08:00am 18.9 18.7 9.1 53 5.2 CALM 0 0 0 0 1018.4 1016.8 0.0
24/07:30am 18.0 17.8 9.1 56 4.7 CALM 0 13 0 7 1018.1 1016.4 0.0
24/07:00am 17.6 14.5 9.0 57 4.5 ESE 15 17 8 9 1017.8 1016.1 0.0
24/06:30am 17.9 14.8 9.0 56 4.7 ESE 15 20 8 11 1017.5 1015.9 0.0
24/06:00am 17.8 14.4 9.2 57 4.6 ESE 17 20 9 11 1017.1 1015.5 0.0
24/05:30am 17.8 16.4 8.9 56 4.7 E 6 19 3 10 1016.7 1015.1 0.0
24/05:00am 18.3 16.8 9.1 55 4.9 ESE 7 19 4 10 1016.6 1015.0 0.0
24/04:30am 18.2 15.2 9.3 56 4.7 ESE 15 19 8 10 1016.6 1015.0 0.0
24/04:00am 18.1 15.1 9.2 56 4.7 E 15 17 8 9 1016.4 1014.8 0.0
24/03:30am 18.3 18.1 9.1 55 4.9 CALM 0 19 0 10 1016.4 1014.8 0.0
24/03:00am 18.7 18.1 8.9 53 5.2 E 2 19 1 10 1016.5 1014.9 0.0
24/02:30am 19.1 18.9 9.0 52 5.4 CALM 0 0 0 0 1016.5 1014.9 0.0
24/02:00am 19.5 19.3 9.1 51 5.6 CALM 0 0 0 0 1016.8 1015.2 0.0
24/01:30am 19.9 19.7 9.2 50 5.8 CALM 0 0 0 0 1017.0 1015.4 0.0
24/01:00am 20.1 19.9 9.1 49 5.9 CALM 0 0 0 0 1017.1 1015.5 0.0
24/12:30am 20.1 19.9 9.1 49 5.9 CALM 0 0 0 0 1017.3 1015.7 0.0
24/12:00am 20.0 19.7 8.7 48 6.0 CALM 0 0 0 0 1017.4 1015.8 0.0
 
Date/Time
CST
Temp
°C
App
Temp
°C
Dew
Point
°C
Rel
Hum
%
Delta-T
°C
Wind Press
QNH
hPa
Press
MSL
hPa
Rain since
9am
mm
Dir  Spd
km/h
Gust
km/h
Spd
kts
Gust
kts
23/11:30pm 21.0 20.8 8.9 46 6.5 CALM 0 0 0 0 1018.0 1016.3 0.0
23/11:00pm 21.1 20.8 8.7 45 6.7 CALM 0 0 0 0 1017.9 1016.2 0.0
23/10:30pm 21.5 21.2 8.7 44 6.9 CALM 0 0 0 0 1017.8 1016.1 0.0
23/10:00pm 21.9 21.6 8.8 43 7.1 CALM 0 0 0 0 1017.7 1016.0 0.0
23/09:30pm 22.1 21.8 8.6 42 7.3 CALM 0 0 0 0 1017.7 1016.0 0.0
23/09:00pm 22.8 22.5 8.5 40 7.7 CALM 0 0 0 0 1017.4 1015.8 0.0
23/08:30pm 23.3 22.9 8.2 38 8.1 CALM 0 0 0 0 1017.4 1015.8 0.0
23/08:00pm 23.5 23.1 8.4 38 8.2 CALM 0 0 0 0 1017.0 1015.4 0.0
23/07:30pm 24.2 23.8 8.2 36 8.7 CALM 0 0 0 0 1016.7 1015.1 0.0
23/07:00pm 24.8 24.4 8.3 35 9.0 CALM 0 0 0 0 1016.5 1014.9 0.0
23/06:30pm 25.6 25.2 8.1 33 9.5 CALM 0 0 0 0 1016.2 1014.6 0.0
23/06:00pm 26.6 26.2 8.1 31 10.1 CALM 0 0 0 0 1015.8 1014.2 0.0
23/05:30pm 27.2 26.9 8.6 31 10.3 CALM 0 0 0 0 1015.5 1013.8 0.0
23/05:00pm 27.7 27.4 8.6 30 10.6 CALM 0 0 0 0 1015.3 1013.6 0.0
23/04:30pm 28.0 27.6 8.3 29 10.9 CALM 0 0 0 0 1015.3 1013.6 0.0
23/04:00pm 28.1 24.5 8.4 29 10.9 E 17 28 9 15 1015.2 1013.5 0.0
23/03:30pm 28.3 25.9 8.6 29 11.0 ESE 11 19 6 10 1015.2 1013.5 0.0
23/03:00pm 28.3 24.4 8.6 29 11.0 ESE 19 28 10 15 1015.4 1013.7 0.0
23/02:30pm 28.7 25.4 9.4 30 10.9 E 17 28 9 15 1015.3 1013.6 0.0
23/02:00pm 28.2 28.1 9.5 31 10.6 CALM 0 0 0 0 1015.6 1013.9 0.0
23/01:30pm 27.9 27.7 9.2 31 10.5 CALM 0 30 0 16 1016.2 1014.6 0.0
23/01:00pm 27.7 24.4 9.5 32 10.3 E 17 30 9 16 1016.5 1014.9 0.0
23/12:30pm 27.3 23.4 9.6 33 10.0 E 20 28 11 15 1017.2 1015.6 0.0
23/12:00pm 27.2 23.3 9.5 33 9.9 ESE 20 32 11 17 1017.7 1016.0 0.0
23/11:30am 26.6 21.6 9.5 34 9.6 E 26 32 14 17 1018.3 1016.7 0.0
23/11:00am 25.9 21.4 10.1 37 8.9 E 24 32 13 17 1018.8 1017.2 0.0
23/10:30am 25.7 20.4 9.9 37 8.9 E 28 35 15 19 1018.9 1017.3 0.0
23/10:00am 24.0 18.8 10.3 42 7.7 ESE 28 35 15 19 1019.1 1017.5 0.0
23/09:30am 22.9 17.3 10.0 44 7.1 ESE 30 37 16 20 1019.2 1017.6 0.0
23/09:00am 22.2 17.3 10.0 46 6.7 ESE 26 33 14 18 1019.0 1017.4 0.0
23/08:30am 20.9 15.9 9.5 48 6.2 ESE 26 35 14 19 1019.0 1017.4 0.0
23/08:00am 19.4 15.3 8.7 50 5.7 ESE 20 32 11 17 1018.5 1016.9 0.0
23/07:30am 18.4 17.9 7.8 50 5.5 CALM 0 2 0 1 1018.2 1016.6 0.0
23/07:00am 18.3 17.7 7.4 49 5.6 CALM 0 6 0 3 1017.7 1016.0 0.0
23/06:30am 18.5 17.8 7.0 47 5.9 CALM 0 0 0 0 1017.2 1015.6 0.0
23/06:00am 18.6 17.9 7.1 47 5.9 CALM 0 0 0 0 1016.9 1015.3 0.0
23/05:30am 18.5 17.8 7.0 47 5.9 CALM 0 0 0 0 1016.9 1015.3 0.0
23/05:00am 18.3 17.6 7.1 48 5.7 CALM 0 0 0 0 1016.9 1015.3 0.0
23/04:30am 18.3 17.6 7.1 48 5.7 CALM 0 0 0 0 1016.8 1015.2 0.0
23/04:00am 19.0 18.3 7.1 46 6.1 CALM 0 0 0 0 1016.6 1015.0 0.0
23/03:30am 19.2 18.6 7.3 46 6.1 CALM 0 0 0 0 1016.4 1014.8 0.0
23/03:00am 19.5 18.9 7.3 45 6.3 CALM 0 0 0 0 1016.5 1014.9 0.0
23/02:30am 19.5 18.9 7.6 46 6.2 CALM 0 0 0 0 1016.7 1015.1 0.0
23/02:00am 19.3 18.8 7.7 47 6.0 CALM 0 0 0 0 1016.7 1015.1 0.0
23/01:30am 19.6 19.1 7.7 46 6.2 CALM 0 0 0 0 1016.9 1015.3 0.0
23/01:00am 20.0 19.5 8.0 46 6.3 CALM 0 0 0 0 1016.9 1015.3 0.0
23/12:30am 20.5 20.1 8.2 45 6.5 CALM 0 0 0 0 1017.0 1015.4 0.0
23/12:00am 20.4 20.0 8.4 46 6.4 CALM 0 0 0 0 1017.1 1015.5 0.0
 
Date/Time
CST
Temp
°C
App
Temp
°C
Dew
Point
°C
Rel
Hum
%
Delta-T
°C
Wind Press
QNH
hPa
Press
MSL
hPa
Rain since
9am
mm
Dir  Spd
km/h
Gust
km/h
Spd
kts
Gust
kts
22/11:30pm 20.6 20.3 8.6 46 6.4 CALM 0 0 0 0 1017.1 1015.5 0.0
22/11:00pm 21.0 20.7 8.6 45 6.6 CALM 0 0 0 0 1017.0 1015.4 0.0
22/10:30pm 21.6 21.3 8.8 44 6.9 CALM 0 0 0 0 1017.3 1015.7 0.0
22/10:00pm 21.6 21.3 8.8 44 6.9 CALM 0 0 0 0 1016.8 1015.2 0.0
22/09:30pm 21.7 21.5 8.9 44 6.9 CALM 0 0 0 0 1017.0 1015.4 0.0
22/09:00pm 22.0 21.8 9.2 44 7.0 CALM 0 0 0 0 1017.0 1015.4 0.0
22/08:30pm 22.6 22.4 9.0 42 7.4 CALM 0 0 0 0 1016.6 1015.0 0.0
22/08:00pm 23.1 22.9 9.1 41 7.7 CALM 0 0 0 0 1016.5 1014.9 0.0
22/07:30pm 23.6 23.3 8.8 39 8.1 CALM 0 0 0 0 1016.3 1014.7 0.0
22/07:00pm 24.2 24.0 9.0 38 8.3 CALM 0 0 0 0 1015.8 1014.2 0.0
22/06:30pm 24.8 24.6 9.1 37 8.7 CALM 0 0 0 0 1015.3 1013.6 0.0
22/06:00pm 25.6 25.4 9.0 35 9.2 CALM 0 0 0 0 1015.0 1013.3 0.0
22/05:30pm 26.2 25.9 8.7 33 9.7 CALM 0 0 0 0 1014.6 1013.0 0.0
22/05:00pm 26.7 26.4 8.6 32 10.0 CALM 0 0 0 0 1014.4 1012.8 0.0
22/04:30pm 27.0 26.8 8.9 32 10.1 CALM 0 0 0 0 1014.4 1012.8 0.0
22/04:00pm 27.2 25.6 8.6 31 10.3 SE 7 15 4 8 1014.3 1012.7 0.0
22/03:30pm 27.1 25.6 8.5 31 10.3 E 6 13 3 7 1014.5 1012.9 0.0
22/03:00pm 27.0 23.9 8.9 32 10.1 SSE 15 26 8 14 1014.7 1013.1 0.0
22/02:30pm 27.3 24.7 9.2 32 10.1 NE 13 19 7 10 1015.1 1013.4 0.0
22/02:00pm 27.1 25.2 9.0 32 10.1 NE 9 24 5 13 1015.7 1014.0 0.0
22/01:30pm 26.8 24.9 9.2 33 9.8 ESE 9 15 5 8 1016.1 1014.5 0.0
22/01:00pm 26.4 22.7 9.3 34 9.5 ESE 19 32 10 17 1016.5 1014.9 0.0
22/12:30pm 25.5 21.7 8.9 35 9.1 E 19 30 10 16 1017.0 1015.4 0.0
22/12:00pm 25.4 20.6 8.8 35 9.1 E 24 33 13 18 1017.3 1015.7 0.0
22/11:30am 24.7 20.0 7.8 34 9.1 ESE 22 30 12 16 1018.0 1016.3 0.0
22/11:00am 24.5 19.0 7.6 34 9.1 ESE 26 33 14 18 1018.5 1016.9 0.0
22/10:30am 23.4 17.2 6.2 33 8.9 ESE 28 35 15 19 1018.9 1017.3 0.0
22/10:00am 22.0 15.6 5.4 34 8.4 ESE 28 35 15 19 1018.9 1017.3 0.0
22/09:30am 20.8 13.6 4.8 35 8.0 ESE 32 39 17 21 1019.0 1017.4 0.0
22/09:00am 19.7 12.3 4.2 36 7.6 ESE 32 39 17 21 1019.0 1017.4 0.0
22/08:30am 18.7 11.6 3.7 37 7.2 ESE 30 37 16 20 1019.0 1017.4 0.0
22/08:00am 17.8 11.4 3.3 38 6.9 ESE 26 33 14 18 1018.9 1017.3 0.0
22/07:30am 16.8 11.1 3.1 40 6.4 ESE 22 28 12 15 1018.5 1016.9 0.0
22/07:00am 16.5 10.9 3.6 42 6.1 ESE 22 28 12 15 1018.1 1016.4 0.0
22/06:30am 16.8 10.5 3.5 41 6.3 ESE 26 33 14 18 1017.8 1016.1 0.0
22/06:00am 17.1 10.8 3.8 41 6.3 ESE 26 37 14 20 1017.4 1015.8 0.0
22/05:30am 17.1 11.2 3.8 41 6.3 ESE 24 33 13 18 1017.4 1015.8 0.0
22/05:00am 17.2 11.3 3.8 41 6.4 ESE 24 33 13 18 1017.2 1015.6 0.0
22/04:30am 17.6 11.8 4.2 41 6.4 ESE 24 35 13 19 1017.2 1015.6 0.0
22/04:00am 17.8 11.9 4.0 40 6.6 ESE 24 30 13 16 1017.1 1015.5 0.0
22/03:30am 17.7 12.8 4.3 41 6.5 SE 19 28 10 15 1017.1 1015.5 0.0
22/03:00am 17.9 13.0 4.1 40 6.6 SE 19 26 10 14 1017.1 1015.5 0.0
22/02:30am 18.0 13.5 4.2 40 6.7 SE 17 24 9 13 1017.1 1015.5 0.0
22/02:00am 18.1 13.6 4.3 40 6.7 SE 17 24 9 13 1017.3 1015.7 0.0
22/01:30am 18.3 13.8 4.1 39 6.8 ESE 17 20 9 11 1017.7 1016.0 0.0
22/01:00am 19.0 14.5 4.4 38 7.1 SE 17 24 9 13 1017.8 1016.1 0.0
22/12:30am 19.2 14.7 4.2 37 7.3 SE 17 22 9 12 1018.0 1016.3 0.0
22/12:00am 19.6 15.1 4.1 36 7.5 SE 17 24 9 13 1018.1 1016.4 0.0
 
Date/Time
CST
Temp
°C
App
Temp
°C
Dew
Point
°C
Rel
Hum
%
Delta-T
°C
Wind Press
QNH
hPa
Press
MSL
hPa
Rain since
9am
mm
Dir  Spd
km/h
Gust
km/h
Spd
kts
Gust
kts
21/11:30pm 20.0 15.2 4.5 36 7.6 SE 19 26 10 14 1018.2 1016.6 0.0
21/11:00pm 20.2 16.2 4.7 36 7.7 ESE 15 19 8 10 1018.3 1016.7 0.0
21/10:30pm 20.5 16.1 4.5 35 7.9 ESE 17 20 9 11 1018.2 1016.6 0.0
21/10:00pm 20.6 17.0 5.0 36 7.8 ESE 13 17 7 9 1018.3 1016.7 0.0

Other formats

Comma delimited format used in spreadsheet applications
http://www.bom.gov.au/fwo/IDD60801/IDD60801.94238.axf

JavaScript Object Notation format (JSON) in row-major order
http://www.bom.gov.au/fwo/IDD60801/IDD60801.94238.json

Data quality

Most of these data are generated automatically and are frequently updated. Quality checks on data are not normally performed. It is possible for incorrect values to appear. Refer to information at About Latest Weather Observations and please check the disclaimer before using these data.